Station Historical Data
Daily Summary for May 30, 2012 Units:  Both    English   Metric
« Previous Day
Next Day »
Daily Weekly Monthly Yearly Custom
  High: Low: Average:
Temperature: 88.0 °F /  31.1 °C 60.4 °F /  15.8 °C 73.4 °F /  23 °C
Dew Point: 72.2 °F /  22.3 °C 55.8 °F /  13.2 °C 64 °F /  17.8 °C
Humidity: 95% 34% 76%
Wind Speed: 6.0mph /  9.7km/h - 1.6mph /  2.6km/h
Wind Gust: 9.0mph /  14.5km/h - -
Wind- - SSE
Pressure: 29.86 in /  1011.1 hPa 29.77 in /  1008 hPa -
Precipitation: 0.02 in /  0.51 mm    
Historical Graphs
 
 
Tabular Data for May 30, 2012
Time Temperature Dew Point Pressure Wind Wind Speed Wind Gust Humidity Rainfall Rate (Hourly) Conditions
00:00 65.1 °F /  18.4 °C 63.3 °F /  17.4 °C 29.80in /  1009hPa NW 1.0mph /  1.6km/h 2.0mph /  3.2km/h 94% 0.00in /  0mm
00:05 65.0 °F /  18.3 °C 63.5 °F /  17.5 °C 29.80in /  1009hPa Calm   2.0mph /  3.2km/h 95% 0.00in /  0mm
00:10 65.0 °F /  18.3 °C 63.5 °F /  17.5 °C 29.80in /  1009hPa Calm     95% 0.00in /  0mm
00:11 65.0 °F /  18.3 °C 63.5 °F /  17.5 °C 29.80in /  1009hPa Calm     95% 0.00in /  0mm
00:16 64.9 °F /  18.3 °C 63.4 °F /  17.4 °C 29.80in /  1009hPa WSW 1.0mph /  1.6km/h 1.0mph /  1.6km/h 95% 0.00in /  0mm
00:21 64.9 °F /  18.3 °C 63.4 °F /  17.4 °C 29.80in /  1009hPa Calm   1.0mph /  1.6km/h 95% 0.00in /  0mm
00:26 64.9 °F /  18.3 °C 63.4 °F /  17.4 °C 29.80in /  1009hPa WSW 1.0mph /  1.6km/h 1.0mph /  1.6km/h 95% 0.00in /  0mm
00:31 64.9 °F /  18.3 °C 63.4 °F /  17.4 °C 29.80in /  1009hPa Calm   1.0mph /  1.6km/h 95% 0.00in /  0mm
00:36 64.8 °F /  18.2 °C 63.3 °F /  17.4 °C 29.80in /  1009hPa Calm   1.0mph /  1.6km/h 95% 0.00in /  0mm
00:41 64.6 °F /  18.1 °C 63.1 °F /  17.3 °C 29.80in /  1009hPa West 1.0mph /  1.6km/h 1.0mph /  1.6km/h 95% 0.00in /  0mm
00:46 64.4 °F /  18 °C 62.9 °F /  17.2 °C 29.80in /  1009hPa NW 1.0mph /  1.6km/h 2.0mph /  3.2km/h 95% 0.00in /  0mm
00:51 64.3 °F /  17.9 °C 62.8 °F /  17.1 °C 29.81in /  1009.4hPa NNW 1.0mph /  1.6km/h 2.0mph /  3.2km/h 95% 0.00in /  0mm
00:56 64.0 °F /  17.8 °C 62.5 °F /  16.9 °C 29.81in /  1009.4hPa North 1.0mph /  1.6km/h 2.0mph /  3.2km/h 95% 0.00in /  0mm
01:01 64.1 °F /  17.8 °C 62.6 °F /  17 °C 29.81in /  1009.4hPa North 1.0mph /  1.6km/h 1.0mph /  1.6km/h 95% 0.00in /  0mm
01:06 64.1 °F /  17.8 °C 62.6 °F /  17 °C 29.81in /  1009.4hPa NNE 1.0mph /  1.6km/h 1.0mph /  1.6km/h 95% 0.00in /  0mm
01:11 63.9 °F /  17.7 °C 62.4 °F /  16.9 °C 29.81in /  1009.4hPa NNE 1.0mph /  1.6km/h 2.0mph /  3.2km/h 95% 0.00in /  0mm
01:16 63.8 °F /  17.7 °C 62.3 °F /  16.8 °C 29.81in /  1009.4hPa NNE 1.0mph /  1.6km/h 1.0mph /  1.6km/h 95% 0.00in /  0mm
01:21 63.7 °F /  17.6 °C 62.2 °F /  16.8 °C 29.81in /  1009.4hPa North 1.0mph /  1.6km/h 2.0mph /  3.2km/h 95% 0.00in /  0mm
01:26 63.5 °F /  17.5 °C 62.0 °F /  16.7 °C 29.82in /  1009.7hPa NNE 2.0mph /  3.2km/h 5.0mph /  8km/h 95% 0.00in /  0mm
01:31 63.6 °F /  17.6 °C 62.2 °F /  16.8 °C 29.82in /  1009.7hPa NE 3.0mph /  4.8km/h 4.0mph /  6.4km/h 95% 0.00in /  0mm
01:36 63.6 °F /  17.6 °C 62.2 °F /  16.8 °C 29.82in /  1009.7hPa NNE 3.0mph /  4.8km/h 5.0mph /  8km/h 95% 0.00in /  0mm
01:41 63.5 °F /  17.5 °C 62.0 °F /  16.7 °C 29.82in /  1009.7hPa NNE 2.0mph /  3.2km/h 4.0mph /  6.4km/h 95% 0.00in /  0mm
01:47 63.4 °F /  17.4 °C 62.0 °F /  16.7 °C 29.82in /  1009.7hPa NNE 2.0mph /  3.2km/h 3.0mph /  4.8km/h 95% 0.00in /  0mm
01:52 63.3 °F /  17.4 °C 61.8 °F /  16.6 °C 29.82in /  1009.7hPa ENE 2.0mph /  3.2km/h 3.0mph /  4.8km/h 95% 0.00in /  0mm
01:57 63.4 °F /  17.4 °C 62.0 °F /  16.7 °C 29.82in /  1009.7hPa NE 3.0mph /  4.8km/h 4.0mph /  6.4km/h 95% 0.00in /  0mm
02:02 63.4 °F /  17.4 °C 62.0 °F /  16.7 °C 29.82in /  1009.7hPa ENE 4.0mph /  6.4km/h 4.0mph /  6.4km/h 95% 0.00in /  0mm
02:07 63.3 °F /  17.4 °C 61.8 °F /  16.6 °C 29.82in /  1009.7hPa ENE 1.0mph /  1.6km/h 3.0mph /  4.8km/h 95% 0.00in /  0mm
02:12 63.3 °F /  17.4 °C 61.8 °F /  16.6 °C 29.81in /  1009.4hPa ENE 2.0mph /  3.2km/h 3.0mph /  4.8km/h 95% 0.00in /  0mm
02:17 63.2 °F /  17.3 °C 61.8 °F /  16.6 °C 29.81in /  1009.4hPa ENE 1.0mph /  1.6km/h 3.0mph /  4.8km/h 95% 0.00in /  0mm
02:22 63.1 °F /  17.3 °C 61.7 °F /  16.5 °C 29.81in /  1009.4hPa NE 2.0mph /  3.2km/h 2.0mph /  3.2km/h 95% 0.00in /  0mm
02:27 63.0 °F /  17.2 °C 61.5 °F /  16.4 °C 29.81in /  1009.4hPa NNE 2.0mph /  3.2km/h 3.0mph /  4.8km/h 95% 0.00in /  0mm
02:32 62.8 °F /  17.1 °C 61.3 °F /  16.3 °C 29.81in /  1009.4hPa NNE 1.0mph /  1.6km/h 2.0mph /  3.2km/h 95% 0.00in /  0mm
02:37 62.7 °F /  17.1 °C 61.2 °F /  16.2 °C 29.82in /  1009.7hPa Calm     95% 0.00in /  0mm
02:42 62.5 °F /  16.9 °C 61.0 °F /  16.1 °C 29.82in /  1009.7hPa Calm   1.0mph /  1.6km/h 95% 0.00in /  0mm
02:47 62.4 °F /  16.9 °C 61.0 °F /  16.1 °C 29.82in /  1009.7hPa Calm   2.0mph /  3.2km/h 95% 0.00in /  0mm
02:52 62.4 °F /  16.9 °C 61.0 °F /  16.1 °C 29.82in /  1009.7hPa NE 1.0mph /  1.6km/h 2.0mph /  3.2km/h 95% 0.00in /  0mm
02:57 62.4 °F /  16.9 °C 61.0 °F /  16.1 °C 29.82in /  1009.7hPa ENE 1.0mph /  1.6km/h 3.0mph /  4.8km/h 95% 0.00in /  0mm
03:02 62.4 °F /  16.9 °C 61.0 °F /  16.1 °C 29.82in /  1009.7hPa NE 2.0mph /  3.2km/h 3.0mph /  4.8km/h 95% 0.00in /  0mm
03:07 62.4 °F /  16.9 °C 61.0 °F /  16.1 °C 29.82in /  1009.7hPa NE 3.0mph /  4.8km/h 3.0mph /  4.8km/h 95% 0.00in /  0mm
03:12 62.4 °F /  16.9 °C 61.0 °F /  16.1 °C 29.82in /  1009.7hPa NE 3.0mph /  4.8km/h 5.0mph /  8km/h 95% 0.00in /  0mm
03:17 62.4 °F /  16.9 °C 61.0 °F /  16.1 °C 29.82in /  1009.7hPa NNE 2.0mph /  3.2km/h 3.0mph /  4.8km/h 95% 0.00in /  0mm
03:22 62.2 °F /  16.8 °C 60.8 °F /  16 °C 29.82in /  1009.7hPa NNE 2.0mph /  3.2km/h 2.0mph /  3.2km/h 95% 0.00in /  0mm
03:27 62.1 °F /  16.7 °C 60.7 °F /  15.9 °C 29.82in /  1009.7hPa NNW 1.0mph /  1.6km/h 2.0mph /  3.2km/h 95% 0.00in /  0mm
03:32 62.0 °F /  16.7 °C 60.6 °F /  15.9 °C 29.82in /  1009.7hPa North 1.0mph /  1.6km/h 2.0mph /  3.2km/h 95% 0.00in /  0mm
03:37 61.9 °F /  16.6 °C 60.5 °F /  15.8 °C 29.82in /  1009.7hPa North 1.0mph /  1.6km/h 2.0mph /  3.2km/h 95% 0.00in /  0mm
03:42 61.9 °F /  16.6 °C 60.5 °F /  15.8 °C 29.82in /  1009.7hPa NE 1.0mph /  1.6km/h 2.0mph /  3.2km/h 95% 0.00in /  0mm
03:48 61.9 °F /  16.6 °C 60.5 °F /  15.8 °C 29.82in /  1009.7hPa NNE 1.0mph /  1.6km/h 2.0mph /  3.2km/h 95% 0.00in /  0mm
03:53 62.0 °F /  16.7 °C 60.6 °F /  15.9 °C 29.82in /  1009.7hPa NNE 2.0mph /  3.2km/h 4.0mph /  6.4km/h 95% 0.00in /  0mm
03:58 62.0 °F /  16.7 °C 60.6 °F /  15.9 °C 29.82in /  1009.7hPa NNE 2.0mph /  3.2km/h 3.0mph /  4.8km/h 95% 0.00in /  0mm
04:03 62.0 °F /  16.7 °C 60.6 °F /  15.9 °C 29.81in /  1009.4hPa NE 3.0mph /  4.8km/h 4.0mph /  6.4km/h 95% 0.00in /  0mm
04:08 62.1 °F /  16.7 °C 60.7 °F /  15.9 °C 29.81in /  1009.4hPa NNE 1.0mph /  1.6km/h 3.0mph /  4.8km/h 95% 0.00in /  0mm
04:13 62.1 °F /  16.7 °C 60.7 °F /  15.9 °C 29.81in /  1009.4hPa NE 2.0mph /  3.2km/h 3.0mph /  4.8km/h 95% 0.00in /  0mm
04:18 62.0 °F /  16.7 °C 60.6 °F /  15.9 °C 29.82in /  1009.7hPa NNE 1.0mph /  1.6km/h 2.0mph /  3.2km/h 95% 0.00in /  0mm
04:23 62.0 °F /  16.7 °C 60.6 °F /  15.9 °C 29.82in /  1009.7hPa NE 1.0mph /  1.6km/h 3.0mph /  4.8km/h 95% 0.00in /  0mm
04:28 61.9 °F /  16.6 °C 60.5 °F /  15.8 °C 29.81in /  1009.4hPa NNE 2.0mph /  3.2km/h 3.0mph /  4.8km/h 95% 0.00in /  0mm
04:33 61.8 °F /  16.6 °C 60.4 °F /  15.8 °C 29.82in /  1009.7hPa NNE 1.0mph /  1.6km/h 2.0mph /  3.2km/h 95% 0.00in /  0mm
04:38 61.7 °F /  16.5 °C 60.3 °F /  15.7 °C 29.82in /  1009.7hPa NNE 1.0mph /  1.6km/h 2.0mph /  3.2km/h 95% 0.00in /  0mm
04:43 61.8 °F /  16.6 °C 60.4 °F /  15.8 °C 29.82in /  1009.7hPa NE 3.0mph /  4.8km/h 3.0mph /  4.8km/h 95% 0.00in /  0mm
04:48 61.9 °F /  16.6 °C 60.5 °F /  15.8 °C 29.81in /  1009.4hPa NE 2.0mph /  3.2km/h 4.0mph /  6.4km/h 95% 0.00in /  0mm
04:53 61.9 °F /  16.6 °C 60.5 °F /  15.8 °C 29.81in /  1009.4hPa North 2.0mph /  3.2km/h 3.0mph /  4.8km/h 95% 0.00in /  0mm
04:58 61.8 °F /  16.6 °C 60.4 °F /  15.8 °C 29.81in /  1009.4hPa NE 1.0mph /  1.6km/h 3.0mph /  4.8km/h 95% 0.00in /  0mm
05:03 62.0 °F /  16.7 °C 60.6 °F /  15.9 °C 29.81in /  1009.4hPa NE 4.0mph /  6.4km/h 4.0mph /  6.4km/h 95% 0.00in /  0mm
05:08 62.1 °F /  16.7 °C 60.7 °F /  15.9 °C 29.81in /  1009.4hPa NNE 2.0mph /  3.2km/h 4.0mph /  6.4km/h 95% 0.00in /  0mm
05:13 62.1 °F /  16.7 °C 60.7 °F /  15.9 °C 29.81in /  1009.4hPa NE 3.0mph /  4.8km/h 4.0mph /  6.4km/h 95% 0.00in /  0mm
05:18 62.0 °F /  16.7 °C 60.6 °F /  15.9 °C 29.81in /  1009.4hPa Calm   3.0mph /  4.8km/h 95% 0.00in /  0mm
05:23 61.9 °F /  16.6 °C 60.5 °F /  15.8 °C 29.81in /  1009.4hPa NNE 2.0mph /  3.2km/h 2.0mph /  3.2km/h 95% 0.00in /  0mm
05:28 61.8 °F /  16.6 °C 60.4 °F /  15.8 °C 29.82in /  1009.7hPa Calm   2.0mph /  3.2km/h 95% 0.00in /  0mm
05:33 61.6 °F /  16.4 °C 60.2 °F /  15.7 °C 29.82in /  1009.7hPa Calm   1.0mph /  1.6km/h 95% 0.00in /  0mm
05:38 61.6 °F /  16.4 °C 60.2 °F /  15.7 °C 29.82in /  1009.7hPa Calm   1.0mph /  1.6km/h 95% 0.00in /  0mm
05:43 61.6 °F /  16.4 °C 60.2 °F /  15.7 °C 29.82in /  1009.7hPa Calm   1.0mph /  1.6km/h 95% 0.00in /  0mm
05:48 61.7 °F /  16.5 °C 60.3 °F /  15.7 °C 29.82in /  1009.7hPa Calm   1.0mph /  1.6km/h 95% 0.00in /  0mm
05:53 61.6 °F /  16.4 °C 60.2 °F /  15.7 °C 29.82in /  1009.7hPa Calm     95% 0.00in /  0mm
05:58 61.5 °F /  16.4 °C 60.1 °F /  15.6 °C 29.82in /  1009.7hPa Calm     95% 0.00in /  0mm
06:03 61.4 °F /  16.3 °C 60.0 °F /  15.6 °C 29.82in /  1009.7hPa Calm     95% 0.00in /  0mm
06:09 61.2 °F /  16.2 °C 59.8 °F /  15.4 °C 29.82in /  1009.7hPa Calm     95% 0.00in /  0mm
06:14 61.2 °F /  16.2 °C 59.8 °F /  15.4 °C 29.82in /  1009.7hPa Calm   1.0mph /  1.6km/h 95% 0.00in /  0mm
06:19 61.1 °F /  16.2 °C 59.7 °F /  15.4 °C 29.82in /  1009.7hPa ESE 1.0mph /  1.6km/h 1.0mph /  1.6km/h 95% 0.00in /  0mm
06:24 61.1 °F /  16.2 °C 59.7 °F /  15.4 °C 29.82in /  1009.7hPa ESE 1.0mph /  1.6km/h 1.0mph /  1.6km/h 95% 0.00in /  0mm
06:29 60.9 °F /  16.1 °C 59.5 °F /  15.3 °C 29.82in /  1009.7hPa ESE 1.0mph /  1.6km/h 1.0mph /  1.6km/h 95% 0.00in /  0mm
06:34 60.9 °F /  16.1 °C 59.5 °F /  15.3 °C 29.83in /  1010hPa ESE 1.0mph /  1.6km/h 2.0mph /  3.2km/h 95% 0.00in /  0mm
06:39 60.8 °F /  16 °C 59.4 °F /  15.2 °C 29.83in /  1010hPa ESE 1.0mph /  1.6km/h 1.0mph /  1.6km/h 95% 0.00in /  0mm
06:44 60.8 °F /  16 °C 59.4 °F /  15.2 °C 29.83in /  1010hPa ESE 1.0mph /  1.6km/h 1.0mph /  1.6km/h 95% 0.00in /  0mm
06:49 60.7 °F /  15.9 °C 59.3 °F /  15.2 °C 29.83in /  1010hPa Calm     95% 0.00in /  0mm
06:54 60.5 °F /  15.8 °C 59.1 °F /  15.1 °C 29.83in /  1010hPa Calm     95% 0.00in /  0mm
06:59 60.4 °F /  15.8 °C 59.0 °F /  15 °C 29.83in /  1010hPa Calm     95% 0.00in /  0mm
07:04 60.5 °F /  15.8 °C 59.1 °F /  15.1 °C 29.83in /  1010hPa Calm     95% 0.00in /  0mm
07:09 60.7 °F /  15.9 °C 59.3 °F /  15.2 °C 29.84in /  1010.4hPa Calm     95% 0.00in /  0mm
07:14 60.6 °F /  15.9 °C 59.2 °F /  15.1 °C 29.84in /  1010.4hPa Calm     95% 0.00in /  0mm
07:19 60.5 °F /  15.8 °C 59.1 °F /  15.1 °C 29.84in /  1010.4hPa Calm     95% 0.00in /  0mm
07:24 60.6 °F /  15.9 °C 59.2 °F /  15.1 °C 29.84in /  1010.4hPa Calm     95% 0.00in /  0mm
07:29 60.8 °F /  16 °C 59.4 °F /  15.2 °C 29.84in /  1010.4hPa Calm     95% 0.00in /  0mm
07:34 61.1 °F /  16.2 °C 59.7 °F /  15.4 °C 29.84in /  1010.4hPa Calm     95% 0.00in /  0mm
07:39 61.1 °F /  16.2 °C 59.7 °F /  15.4 °C 29.84in /  1010.4hPa SE 1.0mph /  1.6km/h 1.0mph /  1.6km/h 95% 0.00in /  0mm
07:44 61.4 °F /  16.3 °C 60.0 °F /  15.6 °C 29.84in /  1010.4hPa SW 1.0mph /  1.6km/h 1.0mph /  1.6km/h 95% 0.00in /  0mm
07:49 62.0 °F /  16.7 °C 60.6 °F /  15.9 °C 29.85in /  1010.7hPa WSW 1.0mph /  1.6km/h 1.0mph /  1.6km/h 95% 0.00in /  0mm
07:54 62.7 °F /  17.1 °C 61.2 °F /  16.2 °C 29.84in /  1010.4hPa WSW 2.0mph /  3.2km/h 2.0mph /  3.2km/h 95% 0.00in /  0mm
07:59 62.6 °F /  17 °C 61.2 °F /  16.2 °C 29.85in /  1010.7hPa West 1.0mph /  1.6km/h 2.0mph /  3.2km/h 95% 0.00in /  0mm
08:04 62.7 °F /  17.1 °C 61.2 °F /  16.2 °C 29.85in /  1010.7hPa West 1.0mph /  1.6km/h 3.0mph /  4.8km/h 95% 0.00in /  0mm
08:09 63.1 °F /  17.3 °C 61.7 °F /  16.5 °C 29.85in /  1010.7hPa Calm   2.0mph /  3.2km/h 95% 0.00in /  0mm
08:14 63.3 °F /  17.4 °C 61.8 °F /  16.6 °C 29.85in /  1010.7hPa West 2.0mph /  3.2km/h 2.0mph /  3.2km/h 95% 0.00in /  0mm
08:19 63.7 °F /  17.6 °C 62.2 °F /  16.8 °C 29.85in /  1010.7hPa West 1.0mph /  1.6km/h 2.0mph /  3.2km/h 95% 0.00in /  0mm
08:24 64.0 °F /  17.8 °C 62.5 °F /  16.9 °C 29.85in /  1010.7hPa WNW 2.0mph /  3.2km/h 2.0mph /  3.2km/h 95% 0.00in /  0mm
08:29 64.2 °F /  17.9 °C 62.7 °F /  17.1 °C 29.85in /  1010.7hPa NW 1.0mph /  1.6km/h 2.0mph /  3.2km/h 95% 0.00in /  0mm
08:34 64.5 °F /  18.1 °C 62.7 °F /  17.1 °C 29.85in /  1010.7hPa West 1.0mph /  1.6km/h 1.0mph /  1.6km/h 94% 0.00in /  0mm
08:39 65.1 °F /  18.4 °C 63.3 °F /  17.4 °C 29.85in /  1010.7hPa WNW 2.0mph /  3.2km/h 2.0mph /  3.2km/h 94% 0.00in /  0mm
08:44 65.2 °F /  18.4 °C 63.4 °F /  17.4 °C 29.85in /  1010.7hPa NW 1.0mph /  1.6km/h 2.0mph /  3.2km/h 94% 0.00in /  0mm
08:49 65.6 °F /  18.7 °C 63.8 °F /  17.7 °C 29.85in /  1010.7hPa Calm   1.0mph /  1.6km/h 94% 0.00in /  0mm
08:54 66.4 °F /  19.1 °C 64.6 °F /  18.1 °C 29.85in /  1010.7hPa Calm   1.0mph /  1.6km/h 94% 0.00in /  0mm
08:59 67.2 °F /  19.6 °C 65.4 °F /  18.6 °C 29.85in /  1010.7hPa Calm   1.0mph /  1.6km/h 94% 0.00in /  0mm
09:04 67.8 °F /  19.9 °C 66.0 °F /  18.9 °C 29.85in /  1010.7hPa Calm     94% 0.00in /  0mm
09:09 68.3 °F /  20.2 °C 66.2 °F /  19 °C 29.86in /  1011.1hPa NNW 1.0mph /  1.6km/h 1.0mph /  1.6km/h 93% 0.00in /  0mm
09:14 68.6 °F /  20.3 °C 66.5 °F /  19.2 °C 29.85in /  1010.7hPa NNW 1.0mph /  1.6km/h 2.0mph /  3.2km/h 93% 0.00in /  0mm
09:19 69.2 °F /  20.7 °C 67.1 °F /  19.5 °C 29.86in /  1011.1hPa Calm   1.0mph /  1.6km/h 93% 0.00in /  0mm
09:24 69.7 °F /  20.9 °C 67.3 °F /  19.6 °C 29.86in /  1011.1hPa Calm   2.0mph /  3.2km/h 92% 0.00in /  0mm
09:29 70.3 °F /  21.3 °C 68.2 °F /  20.1 °C 29.86in /  1011.1hPa NE 1.0mph /  1.6km/h 2.0mph /  3.2km/h 93% 0.00in /  0mm
09:34 70.7 °F /  21.5 °C 68.3 °F /  20.2 °C 29.86in /  1011.1hPa Calm   2.0mph /  3.2km/h 92% 0.00in /  0mm
09:40 71.2 °F /  21.8 °C 68.8 °F /  20.4 °C 29.85in /  1010.7hPa NNE 2.0mph /  3.2km/h 3.0mph /  4.8km/h 92% 0.00in /  0mm
09:45 71.6 °F /  22 °C 68.8 °F /  20.4 °C 29.85in /  1010.7hPa NNE 1.0mph /  1.6km/h 2.0mph /  3.2km/h 91% 0.00in /  0mm
09:50 72.1 °F /  22.3 °C 69.3 °F /  20.7 °C 29.86in /  1011.1hPa ENE 1.0mph /  1.6km/h 3.0mph /  4.8km/h 91% 0.00in /  0mm
09:55 72.6 °F /  22.6 °C 69.5 °F /  20.8 °C 29.86in /  1011.1hPa NNE 2.0mph /  3.2km/h 3.0mph /  4.8km/h 90% 0.00in /  0mm
10:00 73.0 °F /  22.8 °C 69.6 °F /  20.9 °C 29.86in /  1011.1hPa Calm   4.0mph /  6.4km/h 89% 0.00in /  0mm
10:05 73.2 °F /  22.9 °C 69.8 °F /  21 °C 29.86in /  1011.1hPa North 2.0mph /  3.2km/h 3.0mph /  4.8km/h 89% 0.00in /  0mm
10:10 73.6 °F /  23.1 °C 70.5 °F /  21.4 °C 29.86in /  1011.1hPa NNW 1.0mph /  1.6km/h 2.0mph /  3.2km/h 90% 0.00in /  0mm
10:15 73.9 °F /  23.3 °C 70.1 °F /  21.2 °C 29.86in /  1011.1hPa NE 3.0mph /  4.8km/h 4.0mph /  6.4km/h 88% 0.00in /  0mm
10:20 74.2 °F /  23.4 °C 70.1 °F /  21.2 °C 29.86in /  1011.1hPa ENE 2.0mph /  3.2km/h 3.0mph /  4.8km/h 87% 0.00in /  0mm
10:25 74.4 °F /  23.6 °C 70.3 °F /  21.3 °C 29.86in /  1011.1hPa WNW 1.0mph /  1.6km/h 3.0mph /  4.8km/h 87% 0.00in /  0mm
10:30 74.9 °F /  23.8 °C 70.8 °F /  21.6 °C 29.86in /  1011.1hPa NNW 3.0mph /  4.8km/h 3.0mph /  4.8km/h 87% 0.00in /  0mm
10:35 75.1 °F /  23.9 °C 70.6 °F /  21.4 °C 29.86in /  1011.1hPa NNW 2.0mph /  3.2km/h 5.0mph /  8km/h 86% 0.00in /  0mm
10:40 75.4 °F /  24.1 °C 70.9 °F /  21.6 °C 29.86in /  1011.1hPa Calm   2.0mph /  3.2km/h 86% 0.00in /  0mm
10:45 76.3 °F /  24.6 °C 71.1 °F /  21.7 °C 29.86in /  1011.1hPa Calm   2.0mph /  3.2km/h 84% 0.00in /  0mm
10:50 76.7 °F /  24.8 °C 70.8 °F /  21.6 °C 29.86in /  1011.1hPa WNW 2.0mph /  3.2km/h 3.0mph /  4.8km/h 82% 0.00in /  0mm
10:55 77.0 °F /  25 °C 72.2 °F /  22.3 °C 29.86in /  1011.1hPa NNE 1.0mph /  1.6km/h 2.0mph /  3.2km/h 85% 0.00in /  0mm
11:00 77.3 °F /  25.2 °C 71.4 °F /  21.9 °C 29.86in /  1011.1hPa Calm   4.0mph /  6.4km/h 82% 0.00in /  0mm
11:05 77.2 °F /  25.1 °C 70.2 °F /  21.2 °C 29.86in /  1011.1hPa NE 1.0mph /  1.6km/h 3.0mph /  4.8km/h 79% 0.00in /  0mm
11:10 77.2 °F /  25.1 °C 70.2 °F /  21.2 °C 29.86in /  1011.1hPa East 1.0mph /  1.6km/h 1.0mph /  1.6km/h 79% 0.00in /  0mm
11:15 77.6 °F /  25.3 °C 69.8 °F /  21 °C 29.86in /  1011.1hPa North 1.0mph /  1.6km/h 3.0mph /  4.8km/h 77% 0.00in /  0mm
11:20 77.8 °F /  25.4 °C 69.2 °F /  20.7 °C 29.86in /  1011.1hPa Calm   3.0mph /  4.8km/h 75% 0.00in /  0mm
11:25 78.2 °F /  25.7 °C 69.6 °F /  20.9 °C 29.86in /  1011.1hPa West 1.0mph /  1.6km/h 2.0mph /  3.2km/h 75% 0.00in /  0mm
11:31 78.6 °F /  25.9 °C 70.0 °F /  21.1 °C 29.86in /  1011.1hPa North 2.0mph /  3.2km/h 5.0mph /  8km/h 75% 0.00in /  0mm
11:36 78.5 °F /  25.8 °C 70.3 °F /  21.3 °C 29.86in /  1011.1hPa North 2.0mph /  3.2km/h 4.0mph /  6.4km/h 76% 0.00in /  0mm
11:41 78.7 °F /  25.9 °C 69.3 °F /  20.7 °C 29.86in /  1011.1hPa West 2.0mph /  3.2km/h 4.0mph /  6.4km/h 73% 0.00in /  0mm
11:46 78.9 °F /  26.1 °C 69.9 °F /  21.1 °C 29.86in /  1011.1hPa WSW 2.0mph /  3.2km/h 2.0mph /  3.2km/h 74% 0.00in /  0mm
11:51 79.2 °F /  26.2 °C 71.0 °F /  21.7 °C 29.86in /  1011.1hPa NW 1.0mph /  1.6km/h 3.0mph /  4.8km/h 76% 0.00in /  0mm
11:56 79.6 °F /  26.4 °C 70.6 °F /  21.4 °C 29.86in /  1011.1hPa NW 4.0mph /  6.4km/h 4.0mph /  6.4km/h 74% 0.00in /  0mm
12:01 79.4 °F /  26.3 °C 69.6 °F /  20.9 °C 29.86in /  1011.1hPa NNW 1.0mph /  1.6km/h 4.0mph /  6.4km/h 72% 0.00in /  0mm
12:06 79.6 °F /  26.4 °C 69.4 °F /  20.8 °C 29.86in /  1011.1hPa NNW 2.0mph /  3.2km/h 3.0mph /  4.8km/h 71% 0.00in /  0mm
12:11 79.9 °F /  26.6 °C 69.7 °F /  20.9 °C 29.86in /  1011.1hPa NW 2.0mph /  3.2km/h 3.0mph /  4.8km/h 71% 0.00in /  0mm
12:16 80.2 °F /  26.8 °C 69.5 °F /  20.8 °C 29.86in /  1011.1hPa Calm   5.0mph /  8km/h 70% 0.00in /  0mm
12:21 80.8 °F /  27.1 °C 69.3 °F /  20.7 °C 29.86in /  1011.1hPa West 2.0mph /  3.2km/h 2.0mph /  3.2km/h 68% 0.00in /  0mm
12:26 80.8 °F /  27.1 °C 68.8 °F /  20.4 °C 29.86in /  1011.1hPa NNE 2.0mph /  3.2km/h 2.0mph /  3.2km/h 67% 0.00in /  0mm
12:31 80.9 °F /  27.2 °C 69.8 °F /  21 °C 29.86in /  1011.1hPa WSW 3.0mph /  4.8km/h 5.0mph /  8km/h 69% 0.00in /  0mm
12:36 81.0 °F /  27.2 °C 69.4 °F /  20.8 °C 29.86in /  1011.1hPa ESE 1.0mph /  1.6km/h 3.0mph /  4.8km/h 68% 0.00in /  0mm
12:41 81.4 °F /  27.4 °C 69.8 °F /  21 °C 29.85in /  1010.7hPa SW 2.0mph /  3.2km/h 4.0mph /  6.4km/h 68% 0.00in /  0mm
12:46 81.2 °F /  27.3 °C 69.6 °F /  20.9 °C 29.85in /  1010.7hPa WNW 3.0mph /  4.8km/h 3.0mph /  4.8km/h 68% 0.00in /  0mm
12:51 81.6 °F /  27.6 °C 68.7 °F /  20.4 °C 29.85in /  1010.7hPa NW 3.0mph /  4.8km/h 6.0mph /  9.7km/h 65% 0.00in /  0mm
12:56 81.4 °F /  27.4 °C 69.4 °F /  20.8 °C 29.85in /  1010.7hPa NNE 4.0mph /  6.4km/h 5.0mph /  8km/h 67% 0.00in /  0mm
13:01 81.8 °F /  27.7 °C 68.0 °F /  20 °C 29.85in /  1010.7hPa WNW 2.0mph /  3.2km/h 5.0mph /  8km/h 63% 0.00in /  0mm
13:06 82.0 °F /  27.8 °C 67.7 °F /  19.8 °C 29.85in /  1010.7hPa West 4.0mph /  6.4km/h 4.0mph /  6.4km/h 62% 0.00in /  0mm
13:11 82.0 °F /  27.8 °C 65.8 °F /  18.8 °C 29.85in /  1010.7hPa WNW 1.0mph /  1.6km/h 6.0mph /  9.7km/h 58% 0.00in /  0mm
13:16 82.2 °F /  27.9 °C 66.9 °F /  19.4 °C 29.85in /  1010.7hPa WNW 5.0mph /  8km/h 7.0mph /  11.3km/h 60% 0.00in /  0mm
13:21 82.3 °F /  27.9 °C 65.1 °F /  18.4 °C 29.85in /  1010.7hPa WSW 3.0mph /  4.8km/h 5.0mph /  8km/h 56% 0.00in /  0mm
13:26 82.6 °F /  28.1 °C 64.8 °F /  18.2 °C 29.85in /  1010.7hPa SW 3.0mph /  4.8km/h 6.0mph /  9.7km/h 55% 0.00in /  0mm
13:31 83.2 °F /  28.4 °C 65.9 °F /  18.8 °C 29.85in /  1010.7hPa NW 2.0mph /  3.2km/h 4.0mph /  6.4km/h 56% 0.00in /  0mm
13:37 83.4 °F /  28.6 °C 65.0 °F /  18.3 °C 29.85in /  1010.7hPa NNE 2.0mph /  3.2km/h 5.0mph /  8km/h 54% 0.00in /  0mm
13:42 83.6 °F /  28.7 °C 66.3 °F /  19.1 °C 29.85in /  1010.7hPa Calm   3.0mph /  4.8km/h 56% 0.00in /  0mm
13:47 84.0 °F /  28.9 °C 65.1 °F /  18.4 °C 29.84in /  1010.4hPa NNE 3.0mph /  4.8km/h 7.0mph /  11.3km/h 53% 0.00in /  0mm
13:52 83.8 °F /  28.8 °C 63.8 °F /  17.7 °C 29.84in /  1010.4hPa SE 2.0mph /  3.2km/h 4.0mph /  6.4km/h 51% 0.00in /  0mm
13:57 84.1 °F /  28.9 °C 64.0 °F /  17.8 °C 29.84in /  1010.4hPa Calm   4.0mph /  6.4km/h 51% 0.00in /  0mm
14:02 84.6 °F /  29.2 °C 62.8 °F /  17.1 °C 29.84in /  1010.4hPa SSW 1.0mph /  1.6km/h 3.0mph /  4.8km/h 48% 0.00in /  0mm
14:07 84.9 °F /  29.4 °C 63.6 °F /  17.6 °C 29.83in /  1010hPa ENE 3.0mph /  4.8km/h 4.0mph /  6.4km/h 49% 0.00in /  0mm
14:12 85.1 °F /  29.5 °C 65.5 °F /  18.6 °C 29.83in /  1010hPa North 3.0mph /  4.8km/h 3.0mph /  4.8km/h 52% 0.00in /  0mm
14:17 85.0 °F /  29.4 °C 66.5 °F /  19.2 °C 29.83in /  1010hPa Calm   4.0mph /  6.4km/h 54% 0.00in /  0mm
14:22 85.5 °F /  29.7 °C 66.4 °F /  19.1 °C 29.83in /  1010hPa West 2.0mph /  3.2km/h 2.0mph /  3.2km/h 53% 0.00in /  0mm
14:27 85.6 °F /  29.8 °C 64.3 °F /  17.9 °C 29.82in /  1009.7hPa NW 3.0mph /  4.8km/h 9.0mph /  14.5km/h 49% 0.00in /  0mm
14:32 84.9 °F /  29.4 °C 66.9 °F /  19.4 °C 29.82in /  1009.7hPa NW 1.0mph /  1.6km/h 6.0mph /  9.7km/h 55% 0.00in /  0mm
14:37 84.7 °F /  29.3 °C 64.6 °F /  18.1 °C 29.82in /  1009.7hPa NNW 3.0mph /  4.8km/h 7.0mph /  11.3km/h 51% 0.00in /  0mm
14:38 84.6 °F /  29.2 °C 66.1 °F /  18.9 °C 29.82in /  1009.7hPa West 2.0mph /  3.2km/h 7.0mph /  11.3km/h 54% 0.00in /  0mm
14:43 85.0 °F /  29.4 °C 67.0 °F /  19.4 °C 29.82in /  1009.7hPa WNW 2.0mph /  3.2km/h 3.0mph /  4.8km/h 55% 0.00in /  0mm
14:48 85.2 °F /  29.6 °C 65.1 °F /  18.4 °C 29.82in /  1009.7hPa Calm   3.0mph /  4.8km/h 51% 0.00in /  0mm
14:53 85.4 °F /  29.7 °C 65.8 °F /  18.8 °C 29.82in /  1009.7hPa WSW 3.0mph /  4.8km/h 7.0mph /  11.3km/h 52% 0.00in /  0mm
14:58 85.4 °F /  29.7 °C 64.1 °F /  17.8 °C 29.82in /  1009.7hPa North 3.0mph /  4.8km/h 6.0mph /  9.7km/h 49% 0.00in /  0mm
15:03 85.2 °F /  29.6 °C 64.5 °F /  18.1 °C 29.81in /  1009.4hPa NNW 2.0mph /  3.2km/h 6.0mph /  9.7km/h 50% 0.00in /  0mm
15:09 85.5 °F /  29.7 °C 63.6 °F /  17.6 °C 29.81in /  1009.4hPa SE 1.0mph /  1.6km/h 4.0mph /  6.4km/h 48% 0.00in /  0mm
15:14 86.3 °F /  30.2 °C 66.1 °F /  18.9 °C 29.81in /  1009.4hPa NE 2.0mph /  3.2km/h 4.0mph /  6.4km/h 51% 0.00in /  0mm
15:19 86.2 °F /  30.1 °C 63.0 °F /  17.2 °C 29.81in /  1009.4hPa North 4.0mph /  6.4km/h 6.0mph /  9.7km/h 46% 0.00in /  0mm
15:24 86.4 °F /  30.2 °C 62.6 °F /  17 °C 29.81in /  1009.4hPa ESE 2.0mph /  3.2km/h 3.0mph /  4.8km/h 45% 0.00in /  0mm
15:29 86.4 °F /  30.2 °C 61.3 °F /  16.3 °C 29.81in /  1009.4hPa Calm   3.0mph /  4.8km/h 43% 0.00in /  0mm
15:34 87.3 °F /  30.7 °C 62.7 °F /  17.1 °C 29.80in /  1009hPa North 2.0mph /  3.2km/h 3.0mph /  4.8km/h 44% 0.00in /  0mm
15:39 87.3 °F /  30.7 °C 63.4 °F /  17.4 °C 29.81in /  1009.4hPa Calm   3.0mph /  4.8km/h 45% 0.00in /  0mm
15:44 87.5 °F /  30.8 °C 63.6 °F /  17.6 °C 29.81in /  1009.4hPa WNW 2.0mph /  3.2km/h 3.0mph /  4.8km/h 45% 0.00in /  0mm
15:49 87.6 °F /  30.9 °C 64.3 °F /  17.9 °C 29.80in /  1009hPa WNW 3.0mph /  4.8km/h 3.0mph /  4.8km/h 46% 0.00in /  0mm
15:54 87.8 °F /  31 °C 64.5 °F /  18.1 °C 29.80in /  1009hPa North 4.0mph /  6.4km/h 4.0mph /  6.4km/h 46% 0.00in /  0mm
15:59 87.4 °F /  30.8 °C 58.7 °F /  14.8 °C 29.80in /  1009hPa NNE 5.0mph /  8km/h 5.0mph /  8km/h 38% 0.00in /  0mm
16:04 87.1 °F /  30.6 °C 57.7 °F /  14.3 °C 29.79in /  1008.7hPa NW 2.0mph /  3.2km/h 4.0mph /  6.4km/h 37% 0.00in /  0mm
16:09 87.2 °F /  30.7 °C 58.5 °F /  14.7 °C 29.80in /  1009hPa NW 4.0mph /  6.4km/h 6.0mph /  9.7km/h 38% 0.00in /  0mm
16:14 87.0 °F /  30.6 °C 60.5 °F /  15.8 °C 29.80in /  1009hPa NW 3.0mph /  4.8km/h 5.0mph /  8km/h 41% 0.00in /  0mm
16:19 87.2 °F /  30.7 °C 57.0 °F /  13.9 °C 29.80in /  1009hPa NE 2.0mph /  3.2km/h 6.0mph /  9.7km/h 36% 0.00in /  0mm
16:24 87.3 °F /  30.7 °C 57.9 °F /  14.4 °C 29.80in /  1009hPa East 4.0mph /  6.4km/h 4.0mph /  6.4km/h 37% 0.00in /  0mm
16:29 87.2 °F /  30.7 °C 57.0 °F /  13.9 °C 29.80in /  1009hPa WNW 4.0mph /  6.4km/h 6.0mph /  9.7km/h 36% 0.00in /  0mm
16:34 86.8 °F /  30.4 °C 58.9 °F /  14.9 °C 29.79in /  1008.7hPa West 2.0mph /  3.2km/h 5.0mph /  8km/h 39% 0.00in /  0mm
16:39 87.4 °F /  30.8 °C 60.8 °F /  16 °C 29.79in /  1008.7hPa Calm   3.0mph /  4.8km/h 41% 0.00in /  0mm
16:44 88.0 °F /  31.1 °C 61.4 °F /  16.3 °C 29.80in /  1009hPa WNW 6.0mph /  9.7km/h 6.0mph /  9.7km/h 41% 0.00in /  0mm
16:49 87.4 °F /  30.8 °C 60.1 °F /  15.6 °C 29.79in /  1008.7hPa NW 4.0mph /  6.4km/h 7.0mph /  11.3km/h 40% 0.00in /  0mm
16:54 87.0 °F /  30.6 °C 59.1 °F /  15.1 °C 29.79in /  1008.7hPa WNW 3.0mph /  4.8km/h 5.0mph /  8km/h 39% 0.00in /  0mm
16:59 87.0 °F /  30.6 °C 59.8 °F /  15.4 °C 29.79in /  1008.7hPa West 2.0mph /  3.2km/h 4.0mph /  6.4km/h 40% 0.00in /  0mm
17:04 86.9 °F /  30.5 °C 60.4 °F /  15.8 °C 29.79in /  1008.7hPa WNW 2.0mph /  3.2km/h 4.0mph /  6.4km/h 41% 0.00in /  0mm
17:09 86.9 °F /  30.5 °C 56.8 °F /  13.8 °C 29.79in /  1008.7hPa WNW 2.0mph /  3.2km/h 4.0mph /  6.4km/h 36% 0.00in /  0mm
17:14 87.2 °F /  30.7 °C 57.8 °F /  14.3 °C 29.79in /  1008.7hPa North 2.0mph /  3.2km/h 3.0mph /  4.8km/h 37% 0.00in /  0mm
17:19 87.6 °F /  30.9 °C 55.8 °F /  13.2 °C 29.79in /  1008.7hPa NE 1.0mph /  1.6km/h 2.0mph /  3.2km/h 34% 0.00in /  0mm
17:24 88.0 °F /  31.1 °C 58.5 °F /  14.7 °C 29.79in /  1008.7hPa WNW 2.0mph /  3.2km/h 2.0mph /  3.2km/h 37% 0.00in /  0mm
17:29 88.0 °F /  31.1 °C 63.4 °F /  17.4 °C 29.78in /  1008.4hPa NW 2.0mph /  3.2km/h 3.0mph /  4.8km/h 44% 0.00in /  0mm
17:34 87.0 °F /  30.6 °C 59.1 °F /  15.1 °C 29.79in /  1008.7hPa NW 3.0mph /  4.8km/h 4.0mph /  6.4km/h 39% 0.00in /  0mm
17:39 86.7 °F /  30.4 °C 61.5 °F /  16.4 °C 29.79in /  1008.7hPa NNW 2.0mph /  3.2km/h 3.0mph /  4.8km/h 43% 0.00in /  0mm
17:44 86.6 °F /  30.3 °C 60.8 °F /  16 °C 29.79in /  1008.7hPa WNW 3.0mph /  4.8km/h 4.0mph /  6.4km/h 42% 0.00in /  0mm
17:49 86.5 °F /  30.3 °C 60.0 °F /  15.6 °C 29.79in /  1008.7hPa NW 4.0mph /  6.4km/h 5.0mph /  8km/h 41% 0.00in /  0mm
17:54 86.0 °F /  30 °C 60.9 °F /  16.1 °C 29.78in /  1008.4hPa WNW 4.0mph /  6.4km/h 5.0mph /  8km/h 43% 0.00in /  0mm
18:00 85.5 °F /  29.7 °C 62.4 °F /  16.9 °C 29.78in /  1008.4hPa WNW 3.0mph /  4.8km/h 4.0mph /  6.4km/h 46% 0.00in /  0mm
18:05 85.1 °F /  29.5 °C 60.1 °F /  15.6 °C 29.78in /  1008.4hPa WNW 3.0mph /  4.8km/h 4.0mph /  6.4km/h 43% 0.00in /  0mm
18:07 84.9 °F /  29.4 °C 60.6 °F /  15.9 °C 29.78in /  1008.4hPa NW 2.0mph /  3.2km/h 4.0mph /  6.4km/h 44% 0.00in /  0mm
18:12 84.5 °F /  29.2 °C 60.2 °F /  15.7 °C 29.78in /  1008.4hPa WNW 2.0mph /  3.2km/h 4.0mph /  6.4km/h 44% 0.00in /  0mm
18:18 84.2 °F /  29 °C 61.2 °F /  16.2 °C 29.78in /  1008.4hPa WNW 1.0mph /  1.6km/h 3.0mph /  4.8km/h 46% 0.00in /  0mm
18:23 83.8 °F /  28.8 °C 63.2 °F /  17.3 °C 29.78in /  1008.4hPa NW 2.0mph /  3.2km/h 3.0mph /  4.8km/h 50% 0.00in /  0mm
18:28 83.4 °F /  28.6 °C 65.0 °F /  18.3 °C 29.78in /  1008.4hPa NW 2.0mph /  3.2km/h 4.0mph /  6.4km/h 54% 0.00in /  0mm
18:33 82.9 °F /  28.3 °C 66.1 °F /  18.9 °C 29.77in /  1008hPa NW 1.0mph /  1.6km/h 2.0mph /  3.2km/h 57% 0.00in /  0mm
18:38 82.7 °F /  28.2 °C 65.9 °F /  18.8 °C 29.77in /  1008hPa NNW 2.0mph /  3.2km/h 3.0mph /  4.8km/h 57% 0.00in /  0mm
18:43 82.5 °F /  28.1 °C 66.2 °F /  19 °C 29.77in /  1008hPa NNW 2.0mph /  3.2km/h 3.0mph /  4.8km/h 58% 0.00in /  0mm
18:48 82.5 °F /  28.1 °C 67.7 °F /  19.8 °C 29.78in /  1008.4hPa NW 1.0mph /  1.6km/h 2.0mph /  3.2km/h 61% 0.00in /  0mm
18:53 82.3 °F /  27.9 °C 67.5 °F /  19.7 °C 29.78in /  1008.4hPa NW 1.0mph /  1.6km/h 1.0mph /  1.6km/h 61% 0.00in /  0mm
18:58 82.2 °F /  27.9 °C 66.9 °F /  19.4 °C 29.78in /  1008.4hPa NW 1.0mph /  1.6km/h 2.0mph /  3.2km/h 60% 0.00in /  0mm
19:03 82.0 °F /  27.8 °C 68.2 °F /  20.1 °C 29.78in /  1008.4hPa NW 1.0mph /  1.6km/h 2.0mph /  3.2km/h 63% 0.00in /  0mm
19:08 81.7 °F /  27.6 °C 68.8 °F /  20.4 °C 29.78in /  1008.4hPa NNW 2.0mph /  3.2km/h 3.0mph /  4.8km/h 65% 0.00in /  0mm
19:13 81.4 °F /  27.4 °C 68.1 °F /  20.1 °C 29.78in /  1008.4hPa NNW 2.0mph /  3.2km/h 3.0mph /  4.8km/h 64% 0.00in /  0mm
19:18 81.3 °F /  27.4 °C 68.0 °F /  20 °C 29.78in /  1008.4hPa NNE 2.0mph /  3.2km/h 3.0mph /  4.8km/h 64% 0.00in /  0mm
19:23 81.2 °F /  27.3 °C 67.9 °F /  19.9 °C 29.77in /  1008hPa North 2.0mph /  3.2km/h 3.0mph /  4.8km/h 64% 0.00in /  0mm
19:28 81.0 °F /  27.2 °C 67.7 °F /  19.8 °C 29.77in /  1008hPa North 2.0mph /  3.2km/h 2.0mph /  3.2km/h 64% 0.00in /  0mm
19:33 80.8 °F /  27.1 °C 67.0 °F /  19.4 °C 29.77in /  1008hPa NNW 2.0mph /  3.2km/h 4.0mph /  6.4km/h 63% 0.00in /  0mm
19:38 80.5 °F /  26.9 °C 67.2 °F /  19.6 °C 29.78in /  1008.4hPa North 2.0mph /  3.2km/h 5.0mph /  8km/h 64% 0.00in /  0mm
19:43 80.3 °F /  26.8 °C 67.0 °F /  19.4 °C 29.78in /  1008.4hPa North 3.0mph /  4.8km/h 4.0mph /  6.4km/h 64% 0.00in /  0mm
19:48 80.2 °F /  26.8 °C 67.4 °F /  19.7 °C 29.78in /  1008.4hPa Calm   2.0mph /  3.2km/h 65% 0.00in /  0mm
19:53 79.9 °F /  26.6 °C 67.5 °F /  19.7 °C 29.78in /  1008.4hPa North 1.0mph /  1.6km/h 2.0mph /  3.2km/h 66% 0.00in /  0mm
19:58 79.7 °F /  26.5 °C 67.3 °F /  19.6 °C 29.78in /  1008.4hPa Calm   2.0mph /  3.2km/h 66% 0.00in /  0mm
20:03 79.6 °F /  26.4 °C 67.2 °F /  19.6 °C 29.78in /  1008.4hPa Calm   1.0mph /  1.6km/h 66% 0.00in /  0mm
20:08 79.5 °F /  26.4 °C 67.2 °F /  19.6 °C 29.78in /  1008.4hPa Calm   1.0mph /  1.6km/h 66% 0.00in /  0mm
20:13 79.3 °F /  26.3 °C 67.4 °F /  19.7 °C 29.78in /  1008.4hPa Calm   1.0mph /  1.6km/h 67% 0.00in /  0mm
20:18 79.0 °F /  26.1 °C 67.6 °F /  19.8 °C 29.78in /  1008.4hPa Calm     68% 0.00in /  0mm
20:23 78.7 °F /  25.9 °C 67.3 °F /  19.6 °C 29.78in /  1008.4hPa Calm   1.0mph /  1.6km/h 68% 0.00in /  0mm
20:28 78.5 °F /  25.8 °C 67.1 °F /  19.5 °C 29.78in /  1008.4hPa Calm   1.0mph /  1.6km/h 68% 0.00in /  0mm
20:33 78.3 °F /  25.7 °C 66.9 °F /  19.4 °C 29.78in /  1008.4hPa NNE 1.0mph /  1.6km/h 1.0mph /  1.6km/h 68% 0.00in /  0mm
20:38 78.0 °F /  25.6 °C 66.2 °F /  19 °C 29.78in /  1008.4hPa NE 2.0mph /  3.2km/h 2.0mph /  3.2km/h 67% 0.00in /  0mm
20:43 77.9 °F /  25.5 °C 65.6 °F /  18.7 °C 29.78in /  1008.4hPa NE 1.0mph /  1.6km/h 3.0mph /  4.8km/h 66% 0.00in /  0mm
20:48 77.9 °F /  25.5 °C 65.6 °F /  18.7 °C 29.78in /  1008.4hPa NE 4.0mph /  6.4km/h 4.0mph /  6.4km/h 66% 0.00in /  0mm
20:53 77.7 °F /  25.4 °C 65.4 °F /  18.6 °C 29.78in /  1008.4hPa NNE 2.0mph /  3.2km/h 3.0mph /  4.8km/h 66% 0.00in /  0mm
20:58 77.5 °F /  25.3 °C 65.3 °F /  18.5 °C 29.78in /  1008.4hPa NNE 2.0mph /  3.2km/h 3.0mph /  4.8km/h 66% 0.00in /  0mm
21:03 77.3 °F /  25.2 °C 65.5 °F /  18.6 °C 29.78in /  1008.4hPa NE 2.0mph /  3.2km/h 3.0mph /  4.8km/h 67% 0.00in /  0mm
21:08 77.1 °F /  25.1 °C 65.3 °F /  18.5 °C 29.78in /  1008.4hPa NNE 2.0mph /  3.2km/h 3.0mph /  4.8km/h 67% 0.00in /  0mm
21:13 76.8 °F /  24.9 °C 65.4 °F /  18.6 °C 29.78in /  1008.4hPa NNE 2.0mph /  3.2km/h 3.0mph /  4.8km/h 68% 0.00in /  0mm
21:18 76.5 °F /  24.7 °C 65.6 °F /  18.7 °C 29.78in /  1008.4hPa NE 1.0mph /  1.6km/h 2.0mph /  3.2km/h 69% 0.00in /  0mm
21:24 76.4 °F /  24.7 °C 65.5 °F /  18.6 °C 29.78in /  1008.4hPa NNE 3.0mph /  4.8km/h 3.0mph /  4.8km/h 69% 0.00in /  0mm
21:29 76.1 °F /  24.5 °C 65.2 °F /  18.4 °C 29.78in /  1008.4hPa NNE 1.0mph /  1.6km/h 2.0mph /  3.2km/h 69% 0.00in /  0mm
21:34 75.8 °F /  24.3 °C 65.3 °F /  18.5 °C 29.77in /  1008hPa NE 2.0mph /  3.2km/h 2.0mph /  3.2km/h 70% 0.00in /  0mm
21:39 75.5 °F /  24.2 °C 65.4 °F /  18.6 °C 29.78in /  1008.4hPa NE 1.0mph /  1.6km/h 2.0mph /  3.2km/h 71% 0.00in /  0mm
21:44 75.4 °F /  24.1 °C 65.3 °F /  18.5 °C 29.78in /  1008.4hPa NE 1.0mph /  1.6km/h 2.0mph /  3.2km/h 71% 0.00in /  0mm
21:49 75.1 °F /  23.9 °C 65.5 °F /  18.6 °C 29.78in /  1008.4hPa NNE 2.0mph /  3.2km/h 2.0mph /  3.2km/h 72% 0.00in /  0mm
21:54 74.9 °F /  23.8 °C 65.7 °F /  18.7 °C 29.78in /  1008.4hPa NNE 1.0mph /  1.6km/h 4.0mph /  6.4km/h 73% 0.00in /  0mm
21:59 74.8 °F /  23.8 °C 65.6 °F /  18.7 °C 29.78in /  1008.4hPa NNE 2.0mph /  3.2km/h 3.0mph /  4.8km/h 73% 0.00in /  0mm
22:04 74.8 °F /  23.8 °C 65.6 °F /  18.7 °C 29.78in /  1008.4hPa NE 3.0mph /  4.8km/h 3.0mph /  4.8km/h 73% 0.00in /  0mm
22:09 75.0 °F /  23.9 °C 65.4 °F /  18.6 °C 29.78in /  1008.4hPa North 2.0mph /  3.2km/h 4.0mph /  6.4km/h 72% 0.00in /  0mm
22:14 75.0 °F /  23.9 °C 65.8 °F /  18.8 °C 29.78in /  1008.4hPa North 2.0mph /  3.2km/h 3.0mph /  4.8km/h 73% 0.00in /  0mm
22:19 74.6 °F /  23.7 °C 65.8 °F /  18.8 °C 29.79in /  1008.7hPa NNW 3.0mph /  4.8km/h 4.0mph /  6.4km/h 74% 0.00in /  0mm
22:24 74.1 °F /  23.4 °C 65.7 °F /  18.7 °C 29.79in /  1008.7hPa North 2.0mph /  3.2km/h 4.0mph /  6.4km/h 75% 0.00in /  0mm
22:29 73.9 °F /  23.3 °C 65.5 °F /  18.6 °C 29.79in /  1008.7hPa NE 2.0mph /  3.2km/h 3.0mph /  4.8km/h 75% 0.00in /  0mm
22:34 73.8 °F /  23.2 °C 65.4 °F /  18.6 °C 29.79in /  1008.7hPa NNE 1.0mph /  1.6km/h 3.0mph /  4.8km/h 75% 0.00in /  0mm
22:39 73.8 °F /  23.2 °C 65.4 °F /  18.6 °C 29.79in /  1008.7hPa NNE 1.0mph /  1.6km/h 2.0mph /  3.2km/h 75% 0.00in /  0mm
22:44 73.7 °F /  23.2 °C 65.3 °F /  18.5 °C 29.79in /  1008.7hPa NNE 2.0mph /  3.2km/h 2.0mph /  3.2km/h 75% 0.00in /  0mm
22:49 73.7 °F /  23.2 °C 65.3 °F /  18.5 °C 29.80in /  1009hPa NNE 1.0mph /  1.6km/h 4.0mph /  6.4km/h 75% 0.00in /  0mm
22:54 73.7 °F /  23.2 °C 65.3 °F /  18.5 °C 29.80in /  1009hPa NE 2.0mph /  3.2km/h 3.0mph /  4.8km/h 75% 0.00in /  0mm
22:59 73.6 °F /  23.1 °C 65.2 °F /  18.4 °C 29.80in /  1009hPa NNE 4.0mph /  6.4km/h 4.0mph /  6.4km/h 75% 0.00in /  0mm
23:04 73.5 °F /  23.1 °C 65.1 °F /  18.4 °C 29.80in /  1009hPa NNE 2.0mph /  3.2km/h 3.0mph /  4.8km/h 75% 0.00in /  0mm
23:10 73.3 °F /  22.9 °C 65.3 °F /  18.5 °C 29.79in /  1008.7hPa NE 2.0mph /  3.2km/h 4.0mph /  6.4km/h 76% 0.00in /  0mm
23:15 73.1 °F /  22.8 °C 65.1 °F /  18.4 °C 29.79in /  1008.7hPa NE 1.0mph /  1.6km/h 3.0mph /  4.8km/h 76% 0.00in /  0mm
23:20 73.1 °F /  22.8 °C 65.1 °F /  18.4 °C 29.79in /  1008.7hPa NE 4.0mph /  6.4km/h 4.0mph /  6.4km/h 76% 0.00in /  0mm
23:25 73.3 °F /  22.9 °C 65.3 °F /  18.5 °C 29.78in /  1008.4hPa NE 5.0mph /  8km/h 7.0mph /  11.3km/h 76% 0.00in /  0mm
23:30 73.5 °F /  23.1 °C 65.5 °F /  18.6 °C 29.79in /  1008.7hPa NE 2.0mph /  3.2km/h 7.0mph /  11.3km/h 76% 0.00in /  0mm
23:35 73.1 °F /  22.8 °C 65.1 °F /  18.4 °C 29.79in /  1008.7hPa NNE 3.0mph /  4.8km/h 4.0mph /  6.4km/h 76% 0.00in /  0mm
23:40 72.7 °F /  22.6 °C 65.1 °F /  18.4 °C 29.80in /  1009hPa North 1.0mph /  1.6km/h 1.0mph /  1.6km/h 77% 0.00in /  0mm
23:45 72.2 °F /  22.3 °C 65.0 °F /  18.3 °C 29.80in /  1009hPa NNE 3.0mph /  4.8km/h 3.0mph /  4.8km/h 78% 0.00in /  0mm
23:48 72.1 °F /  22.3 °C 65.2 °F /  18.4 °C 29.79in /  1008.7hPa NE 3.0mph /  4.8km/h 4.0mph /  6.4km/h 79% 0.00in /  0mm
23:53 71.9 °F /  22.2 °C 65.0 °F /  18.3 °C 29.79in /  1008.7hPa North 2.0mph /  3.2km/h 4.0mph /  6.4km/h 79% 0.00in /  0mm
23:58 71.8 °F /  22.1 °C 64.9 °F /  18.3 °C 29.79in /  1008.7hPa NE 4.0mph /  6.4km/h 5.0mph /  8km/h 79% 0.00in /  0mm
Compliments of Weather Underground